Home > Products > Valid Products > TAF

000
FTUS46 KEKA 212350
TAFACV
TAF
KACV 212350Z 2200/2224 22005KT P6SM OVC150
     FM220300 14005KT P6SM FEW050 OVC100
      TEMPO 2217/2221 -RA OVC035
     FM222100 14008KT P6SM -RA BKN035 OVC050=



000
FTUS46 KEKA 212350
TAFCEC
TAF
KCEC 212350Z 2200/2224 18012KT P6SM OVC150
     FM220900 16015G22KT P6SM BKN035 OVC050
      TEMPO 2210/2213 -RA OVC035
     FM221300 16018G27KT 4SM -RA BR OVC025
     FM221800 17019G27KT 3SM RA BR OVC020=



000
FTUS46 KEKA 212350
TAFUKI
TAF
KUKI 212350Z 2200/2224 30008KT P6SM SCT200
     FM220300 00000KT P6SM SCT200
     FM222000 15005KT P6SM OVC200=



000
FTUS46 KEKA 211742
TAFUKI
TAF
KUKI 211742Z 2118/2218 29009KT P6SM SCT250
     FM220300 30005KT P6SM SCT100 BKN250=



000
FTUS46 KEKA 211742
TAFACV
TAF
KACV 211742Z 2118/2218 16007KT P6SM FEW035 SCT050 BKN150
     FM212100 22009KT P6SM FEW035 SCT050 BKN150
     FM220300 14005KT P6SM SCT050 OVC100
     FM220600 14005KT P6SM FEW035 BKN050 OVC100
     FM221200 14008KT P6SM -RA BKN035 OVC050=



000
FTUS46 KEKA 211742
TAFCEC
TAF
KCEC 211742Z 2118/2218 16012KT P6SM SCT028 OVC250
     FM212000 16013G18KT P6SM SCT028 BKN070 OVC250
      TEMPO 2122/2124 BKN028
     FM220100 15012KT P6SM SCT025 BKN050 OVC150
     FM220500 15010KT P6SM VCSH SCT020 OVC050
     FM220900 15015G22KT P6SM -RA BKN020 OVC050
     FM221500 15015G22KT 4SM -RA BR OVC015=



000
FTUS46 KEKA 211556 AAA
TAFUKI
TAF AMD
KUKI 211556Z 2116/2212 00000KT P6SM SCT006 SCT011
     FM211800 29005KT P6SM SCT250
     FM220300 00000KT P6SM SCT250=



000
FTUS46 KEKA 211556 AAA
TAFUKI
TAF AMD
KUKI 211556Z 2116/2212 00000KT P6SM SCT006 SCT011
     FM211800 29005KT P6SM SCT250
     FM220300 00000KT P6SM SCT250=



000
FTUS46 KEKA 211148 CCA
TAFUKI
TAF COR
KUKI 211148Z 2112/2212 00000KT P6SM FEW002 BKN011
     FM211800 29005KT P6SM SCT250
     FM220300 00000KT P6SM SCT250=



000
FTUS46 KEKA 211148 CCA
TAFUKI
TAF COR
KUKI 211148Z 2112/2212 00000KT P6SM FEW002 BKN011
     FM211800 29005KT P6SM SCT250
     FM220300 00000KT P6SM SCT250=



000
FTUS46 KEKA 211136
TAFUKI
TAF
KUKI 211136Z 2112/2212 00000KT P6SM FEW002 SCT010 BKN020
     FM211800 29005KT P6SM SCT250
     FM220300 00000KT P6SM SCT250=



000
FTUS46 KEKA 211136
TAFUKI
TAF
KUKI 211136Z 2112/2212 00000KT P6SM FEW002 SCT010 BKN020
     FM211800 29005KT P6SM SCT250
     FM220300 00000KT P6SM SCT250=



000
FTUS46 KEKA 211136
TAFCEC
TAF
KCEC 211136Z 2112/2212 15011KT 6SM BR VCSH FEW010 SCT020 BKN050
      TEMPO 2112/2114 5SM -SHRA BKN020
     FM211800 16012KT P6SM SCT050 BKN100
     FM220400 15012KT P6SM FEW035 OVC050
     FM220900 15015G22KT P6SM SCT035 OVC050=



000
FTUS46 KEKA 211136
TAFACV
TAF
KACV 211136Z 2112/2212 13006KT 6SM BR FEW002 SCT025 BKN050
     FM211800 16008KT P6SM SCT050 BKN150
     FM212100 22008KT P6SM BKN150
     FM220300 14005KT P6SM SCT050 OVC100=



000
FTUS46 KEKA 211136
TAFACV
TAF
KACV 211136Z 2112/2212 13006KT 6SM BR FEW002 SCT025 BKN050
     FM211800 16008KT P6SM SCT050 BKN150
     FM212100 22008KT P6SM BKN150
     FM220300 14005KT P6SM SCT050 OVC100=



000
FTUS46 KEKA 211136
TAFCEC
TAF
KCEC 211136Z 2112/2212 15011KT 6SM BR VCSH FEW010 SCT020 BKN050
      TEMPO 2112/2114 5SM -SHRA BKN020
     FM211800 16012KT P6SM SCT050 BKN100
     FM220400 15012KT P6SM FEW035 OVC050
     FM220900 15015G22KT P6SM SCT035 OVC050=



000
FTUS46 KEKA 211009 AAB
TAFCEC
TAF AMD
KCEC 211009Z 2110/2206 16011KT 6SM BR VCSH SCT002 SCT020 BKN050
     FM211800 16010KT P6SM BKN100=



000
FTUS46 KEKA 211009 AAB
TAFCEC
TAF AMD
KCEC 211009Z 2110/2206 16011KT 6SM BR VCSH SCT002 SCT020 BKN050
     FM211800 16010KT P6SM BKN100=



000
FTUS46 KEKA 210720 AAA
TAFCEC
TAF AMD
KCEC 210720Z 2107/2206 17009KT P6SM BKN015 BKN060
     FM210900 15009KT 4SM BR SCT002 SCT020
     FM211800 16010KT P6SM BKN100=



000
FTUS46 KEKA 210539
TAFUKI
TAF
KUKI 210539Z 2106/2206 32004KT P6SM VCSH FEW045
     FM211000 00000KT P6SM SCT010 BKN020
     FM211800 29005KT P6SM SKC=



000
FTUS46 KEKA 210539
TAFCEC
TAF
KCEC 210539Z 2106/2206 20008KT P6SM SCT020
     FM210900 15009KT 4SM BR SCT002
     FM211800 16010KT P6SM BKN100=



000
FTUS46 KEKA 210539
TAFACV
TAF
KACV 210539Z 2106/2206 14005KT P6SM SCT020
     FM210800 15004KT 6SM BR SCT002
     FM211800 16008KT P6SM BKN200=



000
FTUS46 KEKA 202330
TAFACV
TAF
KACV 202330Z 2100/2124 16006KT 6SM -SHRA BKN035 OVC070
      TEMPO 2100/2102 5SM -TSRA BKN025CB
     FM210300 18005KT P6SM -SHRA SCT015 BKN030
     FM210600 15004KT 6SM BR FEW007 SCT015 BKN025
     FM211800 16010KT P6SM SKC=



000
FTUS46 KEKA 202330
TAFCEC
TAF
KCEC 202330Z 2100/2124 15007KT 6SM -SHRA SCT025 OVC070
      TEMPO 2100/2103 5SM -TSRA BR BKN025CB OVC035
     FM210600 15009KT 4SM BR FEW007 SCT015 BKN025
     FM211800 16010KT P6SM SKC=



000
FTUS46 KEKA 202330
TAFUKI
TAF
KUKI 202330Z 2100/2124 22011KT P6SM VCSH SCT025 BKN035 BKN080
     FM210300 33006KT P6SM VCSH FEW025 SCT035 BKN050
     FM210800 VRB03KT P6SM SCT010
     FM211800 16010KT P6SM SKC=



000
FTUS46 KEKA 202141 AAA
TAFACV
TAF AMD
KACV 202141Z 2022/2118 19009KT 6SM -SHRA BKN035 OVC070
      TEMPO 2022/2102 20010G17KT 5SM -TSRA BKN025CB OVC035
     FM210200 18005KT P6SM -SHRA SCT015 BKN030
     FM210600 15004KT 6SM BR FEW007 SCT015 BKN025=



000
FTUS46 KEKA 202141 AAA
TAFACV
TAF AMD
KACV 202141Z 2022/2118 19009KT 6SM -SHRA BKN035 OVC070
      TEMPO 2022/2102 20010G17KT 5SM -TSRA BKN025CB OVC035
     FM210200 18005KT P6SM -SHRA SCT015 BKN030
     FM210600 15004KT 6SM BR FEW007 SCT015 BKN025=



000
FTUS46 KEKA 202139 CCA
TAFCEC
TAF COR
KCEC 202139Z 2021/2118 24013G20KT P6SM -SHRA SCT017 BKN025 OVC035
      TEMPO 2022/2024 6SM -TSRA SCT025CB BKN035 OVC050
     FM210000 19012KT 6SM -SHRA SCT008 BKN017 OVC025
      TEMPO 2100/2104 5SM -TSRA BR SCT012 SCT025CB OVC035
     FM210600 15009KT 4SM BR FEW007 SCT015 BKN025=



000
FTUS46 KEKA 202139 CCA
TAFCEC
TAF COR
KCEC 202139Z 2021/2118 24013G20KT P6SM -SHRA SCT017 BKN025 OVC035
      TEMPO 2022/2024 6SM -TSRA SCT025CB BKN035 OVC050
     FM210000 19012KT 6SM -SHRA SCT008 BKN017 OVC025
      TEMPO 2100/2104 5SM -TSRA BR SCT012 SCT025CB OVC035
     FM210600 15009KT 4SM BR FEW007 SCT015 BKN025=



000
FTUS46 KEKA 202114 AAB
TAFCEC
TAF AMD
KCEC 202114Z 2021/2118 22013G20KT P6SM -SHRA SCT017 BKN025 OVC035
      TEMPO 2022/2024 6SM -TSRA SCT025CB BKN035 OVC050
     FM210000 19012KT 6SM -SHRA SCT008 BKN017 OVC025
      TEMPO 2100/2104 5SM -TSRA BR SCT012 SCT025CB OVC035
     FM210600 15009KT 4SM BR FEW007 SCT015 BKN025=



000
FTUS46 KEKA 201906 AAA
TAFCEC
TAF AMD
KCEC 201906Z 2019/2118 17013G20KT P6SM -SHRA SCT025 BKN035 OVC070
      TEMPO 2021/2101 6SM -TSRA BKN025CB OVC035
     FM210100 16009KT 6SM -SHRA BKN025
      TEMPO 2101/2105 5SM -TSRA BR SCT012 OVC025CB
     FM210600 15009KT 4SM BR FEW007 SCT015 BKN025=



000
FTUS46 KEKA 201740
TAFUKI
TAF
KUKI 201740Z 2018/2118 18008KT P6SM VCSH SCT035 BKN060
      TEMPO 2018/2021 6SM -SHRA BKN035
     FM202100 27011KT P6SM VCSH SCT025 BKN035 BKN080
     FM210100 33006KT P6SM VCSH FEW025 SCT035 BKN050
     FM210800 VRB03KT P6SM FEW025 SCT050=



000
FTUS46 KEKA 201740
TAFCEC
TAF
KCEC 201740Z 2018/2118 16013G20KT P6SM -SHRA SCT009 BKN010 OVC025
      TEMPO 2018/2020 SCT009 SCT010 OVC025
     FM202000 16013G20KT P6SM -SHRA SCT025 BKN035 OVC090
      TEMPO 2021/2101 6SM -TSRA BKN025CB OVC035
     FM210100 16009KT 6SM -SHRA BKN025
      TEMPO 2101/2105 5SM -TSRA BR SCT012 OVC025CB
     FM210600 15009KT 4SM BR FEW007 SCT015 BKN025=



000
FTUS46 KEKA 201740
TAFACV
TAF
KACV 201740Z 2018/2118 17009KT P6SM VCSH FEW025 SCT050 BKN090
      TEMPO 2018/2020 17012KT P6SM SCT025 BKN050
     FM202000 18013KT P6SM -SHRA SCT025 BKN035 OVC090
      TEMPO 2022/2102 6SM -TSRA BKN025CB OVC035
     FM210200 18005KT P6SM -SHRA SCT015 BKN030
     FM210600 15004KT 6SM BR FEW007 SCT015 BKN025=



000
FTUS46 KEKA 201628 CCA
TAFCEC
TAF COR
KCEC 201628Z 2016/2112 15009KT P6SM -SHRA SCT005 BKN011 OVC025
      TEMPO 2016/2020 16012G27KT 6SM -SHRA BKN025 BKN035 OVC070
     FM202000 16013G18KT P6SM -SHRA SCT025 BKN035 OVC090
      TEMPO 2021/2024 6SM -TSRA BKN025CB OVC035
     FM210200 16009KT 6SM -SHRA BKN025
     FM210600 15009KT 4SM BR FEW007 SCT015 BKN025=



000
FTUS46 KEKA 201541 AAB
TAFUKI
TAF AMD
KUKI 201541Z 2016/2112 18005KT 6SM -RA BR BKN004 BKN020 OVC045
      TEMPO 2016/2017 SCT004 BKN020
     FM201700 29009KT P6SM -SHRA SCT025 BKN035 BKN050
     FM210100 33006KT P6SM VCSH SCT035 BKN050
     FM210800 VRB03KT P6SM FEW025 SCT050=



000
FTUS46 KEKA 201536 CCA
TAFACV
TAF COR
KACV 201536Z 2016/2112 15009KT P6SM -SHRA BKN023 BKN050 OVC090
      TEMPO 2016/2020 6SM -SHRA SCT018 OVC035
     FM202000 18012KT P6SM -SHRA SCT025 BKN035 OVC090
      TEMPO 2022/2101 6SM -TSRA BKN025CB OVC035
     FM210500 15004KT 4SM BR FEW007 SCT015 BKN025=



000
FTUS46 KEKA 201535 AAA
TAFACV
TAF AMD
KACV 201535Z 2016/2112 15009KT P6SM -SHRA SCT018 BKN050 OVC090
      TEMPO 2016/2020 6SM -SHRA BKN018 OVC035
     FM202000 18012KT P6SM -SHRA SCT025 BKN035 OVC090
      TEMPO 2022/2101 6SM -TSRA BKN025CB OVC035
     FM210500 15004KT 4SM BR FEW007 SCT015 BKN025=



000
FTUS46 KEKA 201530 AAA
TAFCEC
TAF AMD
KCEC 201530Z 2016/2112 15009KT P6SM -SHRA SCT005 BKN011 OVC025
      TEMPO 2016/2020 6SM -SHRA BKN025 BKN035 OVC070
     FM202000 16013G18KT P6SM -SHRA SCT025 BKN035 OVC090
      TEMPO 2021/2024 6SM -TSRA BKN025CB OVC035
     FM210200 16009KT 6SM -SHRA BKN025
     FM210600 15009KT 4SM BR FEW007 SCT015 BKN025=



000
FTUS46 KEKA 201310 AAA
TAFUKI
TAF AMD
KUKI 201310Z 2013/2112 16005KT 5SM -RA BR BKN018 BKN025 OVC040
     FM201800 29009KT P6SM -SHRA SCT025 BKN035 BKN050
     FM210100 33006KT P6SM VCSH SCT035 BKN050
     FM210800 VRB03KT P6SM FEW025 SCT050=



000
FTUS46 KEKA 201138
TAFACV
TAF
KACV 201138Z 2012/2112 20007KT 5SM -RA SCT004 BKN015 OVC025
      TEMPO 2012/2014 2SM RA BR BKN004
     FM201600 21009KT 6SM -SHRA BKN025 BKN040
     FM210500 15004KT 4SM BR FEW007 SCT015 BKN025=



000
FTUS46 KEKA 201138
TAFCEC
TAF
KCEC 201138Z 2012/2112 18008G16KT 4SM RA BR SCT005 BKN015 OVC025
     FM201500 17012G20KT P6SM -SHRA SCT025 BKN035
     FM210200 16009KT 6SM -SHRA BKN025
     FM210600 15009KT 4SM BR FEW007 SCT015 BKN025=



000
FTUS46 KEKA 201138
TAFUKI
TAF
KUKI 201138Z 2012/2112 16005KT 6SM -RA BR SCT015 BKN025 OVC040
     FM201800 29009KT P6SM -SHRA SCT025 BKN035 BKN050
     FM210100 33006KT P6SM VCSH SCT035 BKN050
     FM210800 VRB03KT P6SM FEW025 SCT050=



000
FTUS46 KEKA 201051 AAB
TAFACV
TAF AMD
KACV 201051Z 2011/2106 23007KT 5SM RA SCT004 BKN015 OVC025
      TEMPO 2011/2013 2SM RA BR BKN004
     FM201600 20009KT P6SM -SHRA BKN025=



000
FTUS46 KEKA 201015 AAB
TAFCEC
TAF AMD
KCEC 201015Z 2010/2106 16008G16KT 4SM RA BR SCT005 BKN015 OVC025
     FM201500 17012G20KT P6SM -SHRA BKN035
     FM210200 16009KT 6SM -SHRA BKN025=



000
FTUS46 KEKA 201015 AAB
TAFCEC
TAF AMD
KCEC 201015Z 2010/2106 16008G16KT 4SM RA BR SCT005 BKN015 OVC025
     FM201500 17012G20KT P6SM -SHRA BKN035
     FM210200 16009KT 6SM -SHRA BKN025=



000
FTUS46 KEKA 200825 AAA
TAFACV
TAF AMD
KACV 200825Z 2008/2106 22009KT 5SM RA SCT008 BKN015 OVC025
      TEMPO 2008/2011 2SM RA BR
     FM201600 20009KT P6SM -SHRA BKN025=



000
FTUS46 KEKA 200732 AAA
TAFCEC
TAF AMD
KCEC 200732Z 2008/2106 18012G20KT 4SM -RA BR SCT005 BKN015 OVC025
      TEMPO 2008/2010 2SM RA BR BKN005
     FM201500 17012G20KT P6SM -SHRA BKN035
     FM210200 16009KT 6SM -SHRA BKN025=



000
FTUS46 KEKA 200732 AAA
TAFCEC
TAF AMD
KCEC 200732Z 2008/2106 18012G20KT 4SM -RA BR SCT005 BKN015 OVC025
      TEMPO 2008/2010 2SM RA BR BKN005
     FM201500 17012G20KT P6SM -SHRA BKN035
     FM210200 16009KT 6SM -SHRA BKN025=



000
FTUS46 KEKA 200534
TAFACV
TAF
KACV 200534Z 2006/2106 17014G20KT P6SM SCT050 BKN090
     FM200700 17010KT 5SM -RA BR SCT025 OVC040
     FM200900 17009KT 5SM RA SCT008 BKN015 OVC025
     FM201600 20009KT P6SM -SHRA BKN025=



000
FTUS46 KEKA 200534
TAFUKI
TAF
KUKI 200534Z 2006/2106 15006KT P6SM SKC
     FM200600 15004KT P6SM SCT025 SCT050 OVC100
     FM201200 16005KT 6SM -RA BR SCT015 BKN025 OVC040
     FM201800 20009KT P6SM -SHRA BKN025=



000
FTUS46 KEKA 200534
TAFCEC
TAF
KCEC 200534Z 2006/2106 16011G19KT 6SM -RA SCT025 OVC040
     FM200800 16012G20KT 4SM RA BR SCT007 BKN015 OVC025
     FM201500 17012G20KT P6SM -SHRA BKN035
     FM210200 16009KT 6SM -SHRA BKN025=



000
FTUS46 KEKA 192322
TAFCEC
TAF
KCEC 192322Z 2000/2024 17014G21KT P6SM OVC040
     FM200400 16015G23KT 6SM -RA SCT025 OVC040
     FM200800 16012G20KT 4SM RA BR SCT007 BKN015 OVC025
     FM201500 17012G20KT P6SM -SHRA BKN025=



000
FTUS46 KEKA 192322
TAFUKI
TAF
KUKI 192322Z 2000/2024 15006KT P6SM SKC
     FM200600 15004KT P6SM SCT025 SCT050 OVC100
     FM201200 16005KT 6SM -RA BR SCT015 BKN025 OVC040
     FM201800 20009KT P6SM -SHRA BKN025=



000
FTUS46 KEKA 192322
TAFACV
TAF
KACV 192322Z 2000/2024 20014KT P6SM SCT050
     FM200300 16011KT P6SM SCT029 BKN050
     FM200600 17010KT 5SM -RA BR SCT025 OVC040
     FM200800 17009KT 5SM RA SCT008 BKN015 OVC025
     FM201600 20009KT P6SM -SHRA BKN025=



000
FTUS46 KEKA 192322
TAFUKI
TAF
KUKI 192322Z 2000/2024 15006KT P6SM SKC
     FM200600 15004KT P6SM SCT025 SCT050 OVC100
     FM201200 16005KT 6SM -RA BR SCT015 BKN025 OVC040
     FM201800 20009KT P6SM -SHRA BKN025=



000
FTUS46 KEKA 192322
TAFCEC
TAF
KCEC 192322Z 2000/2024 17014G21KT P6SM OVC040
     FM200400 16015G23KT 6SM -RA SCT025 OVC040
     FM200800 16012G20KT 4SM RA BR SCT007 BKN015 OVC025
     FM201500 17012G20KT P6SM -SHRA BKN025=



000
FTUS46 KEKA 192322
TAFACV
TAF
KACV 192322Z 2000/2024 20014KT P6SM SCT050
     FM200300 16011KT P6SM SCT029 BKN050
     FM200600 17010KT 5SM -RA BR SCT025 OVC040
     FM200800 17009KT 5SM RA SCT008 BKN015 OVC025
     FM201600 20009KT P6SM -SHRA BKN025=



000
FTUS46 KEKA 192021 AAA
TAFACV
TAF AMD
KACV 192021Z 1920/2018 21013G20KT P6SM SCT029 SCT050
     FM200000 19011KT P6SM SCT029 BKN050
     FM200600 17010KT 5SM -RA BR SCT015 BKN025 OVC040=



000
FTUS46 KEKA 191915 AAA
TAFCEC
TAF AMD
KCEC 191915Z 1919/2018 17010KT P6SM FEW012 SCT027 OVC035
      TEMPO 1920/1921 17011G16KT P6SM SCT012 BKN027 BKN035
     FM192100 17013G21KT P6SM SCT027 OVC035
     FM200350 16015G23KT 6SM -RA FEW015 BKN025 OVC040
     FM200800 16012G20KT 4SM RA BR SCT007 BKN015 OVC025=



000
FTUS46 KEKA 191751 CCA
TAFCEC
TAF COR
KCEC 191751Z 1918/2018 17010KT P6SM BKN012 BKN027 OVC035
      TEMPO 1919/1921 17011G16KT P6SM SCT012 BKN027 BKN035
     FM192100 17013G21KT P6SM SCT027 OVC035
     FM200350 16015G23KT 6SM -RA FEW015 BKN025 OVC040
     FM200800 16012G20KT 4SM RA BR SCT007 BKN015 OVC025=



000
FTUS46 KEKA 191740
TAFUKI
TAF
KUKI 191740Z 1918/2018 15006KT P6SM BKN011
     FM191900 15008KT P6SM SCT011
     FM200600 15004KT P6SM SCT025 SCT050 OVC100
     FM201000 16005KT 6SM -RA BR SCT015 BKN025 OVC040=



000
FTUS46 KEKA 191740
TAFCEC
TAF
KCEC 191740Z 1918/2018 17009KT P6SM BKN012 BKN027 OVC035
      TEMPO 1919/1921 17010G16KT P6SM SCT012 BKN027 BKN035
     FM192100 17013G21KT P6SM SCT027 OVC035
     FM200350 16015G23KT 6SM -RA FEW015 BKN025 OVC040
     FM200800 16012G20KT 4SM RA BR SCT007 BKN015 OVC025=



000
FTUS46 KEKA 191740
TAFACV
TAF
KACV 191740Z 1918/2018 22009KT P6SM SCT015 SCT050
     FM192000 19010KT P6SM SCT015 BKN050
     FM200600 17010KT 5SM -RA BR SCT015 BKN025 OVC040=



000
FTUS46 KEKA 191545 AAB
TAFCEC
TAF AMD
KCEC 191545Z 1916/2012 16009KT P6SM SCT006 BKN025
      TEMPO 1916/1918 SCT006 SCT025
     FM191800 16015G23KT P6SM BKN020 OVC050
     FM200500 16015G23KT 6SM -RA FEW015 BKN025 OVC040
     FM200800 16012G20KT 4SM RA BR SCT007 BKN015 OVC025=



000
FTUS46 KEKA 191425 AAB
TAFACV
TAF AMD
KACV 191425Z 1914/2012 12005KT P6SM SCT012 SCT035
      TEMPO 1915/1918 BKN035
     FM191800 19010KT P6SM SCT015 OVC035
     FM192100 20010KT P6SM SCT025 OVC050
     FM200800 17010KT 5SM -RA BR SCT015 BKN025 OVC040=



000
FTUS46 KEKA 191422 AAA
TAFCEC
TAF AMD
KCEC 191422Z 1914/2012 16012KT P6SM SCT006 SCT025
      TEMPO 1915/1916 BKN006
     FM192000 16015G23KT P6SM BKN020 OVC050
     FM200500 16015G23KT 6SM -RA FEW015 BKN025 OVC040
     FM200800 16012G20KT 4SM RA BR SCT007 BKN015 OVC025=



000
FTUS46 KEKA 191228 AAA
TAFACV
TAF AMD
KACV 191228Z 1912/2012 13004KT P6SM SCT012 OVC030
      TEMPO 1912/1916 3SM BR SCT007 BKN012
     FM191800 19010KT P6SM SCT015 OVC030
     FM192100 20010KT P6SM SCT025 OVC050
     FM200800 17010KT 5SM -RA BR SCT015 BKN025 OVC040=



000
FTUS46 KEKA 191134
TAFUKI
TAF
KUKI 191134Z 1912/2012 00000KT 6SM BR BKN009
     FM191800 15004KT P6SM SCT009
     FM192100 15007KT P6SM SCT200
     FM200600 15004KT P6SM SCT025 SCT050 OVC100
     FM201000 16005KT 6SM -RA BR SCT015 BKN025 OVC040=



000
FTUS46 KEKA 191134
TAFACV
TAF
KACV 191134Z 1912/2012 13004KT 3SM BR SCT002 BKN007 OVC012
      TEMPO 1912/1916 1/2SM FG
     FM191800 19010KT P6SM SCT012 OVC020
     FM192100 20010KT P6SM SCT025 OVC050
     FM200800 17010KT 5SM -RA BR SCT015 BKN025 OVC040=



000
FTUS46 KEKA 191134
TAFCEC
TAF
KCEC 191134Z 1912/2012 17009KT 3SM -DZ BKN003 OVC007
     FM191800 16012KT P6SM BKN007 OVC012
     FM192000 16015G23KT P6SM BKN020 OVC050
     FM200500 16015G23KT 6SM -RA FEW015 BKN025 OVC040
     FM200800 16012G20KT 4SM RA BR SCT007 BKN015 OVC025=



000
FTUS46 KEKA 191028 AAB
TAFACV
TAF AMD
KACV 191028Z 1910/2006 VRB04KT 3SM BR SCT002 BKN007 OVC012
      TEMPO 1910/1914 1/2SM FG
     FM191800 19010KT P6SM OVC020
     FM192100 20010KT P6SM OVC050=



000
FTUS46 KEKA 191005 AAB
TAFUKI
TAF AMD
KUKI 191005Z 1910/2006 00000KT 6SM BR BKN009
     FM191800 15007KT P6SM SCT009=



000
FTUS46 KEKA 190815 AAA
TAFUKI
TAF AMD
KUKI 190815Z 1908/2006 00000KT 6SM BR OVC012
     FM191800 15007KT P6SM SCT012=



000
FTUS46 KEKA 190711 AAA
TAFACV
TAF AMD
KACV 190711Z 1907/2006 VRB04KT 3SM BR SCT002 BKN007 OVC012
      TEMPO 1907/1909 1/2SM FG
     FM191800 19010KT P6SM OVC020
     FM192100 20010KT P6SM OVC050=



000
FTUS46 KEKA 190533
TAFUKI
TAF
KUKI 190533Z 1906/2006 VRB03KT P6SM SKC
     FM191000 00000KT 6SM BR OVC012
     FM191800 15007KT P6SM SCT012=



000
FTUS46 KEKA 190533
TAFCEC
TAF
KCEC 190533Z 1906/2006 18005KT P6SM SCT007 OVC020
      TEMPO 1906/1908 BKN007
     FM190800 14008KT 3SM -DZ BKN004 OVC007
     FM191800 16012KT P6SM OVC012
     FM192000 16015G23KT P6SM BKN100
     FM200500 16015G23KT P6SM -RA SCT025 OVC050=



000
FTUS46 KEKA 190533
TAFACV
TAF
KACV 190533Z 1906/2006 VRB04KT P6SM OVC012
     FM190800 11003KT 6SM BR SCT004 BKN007 OVC012
     FM191800 19010KT P6SM OVC020
     FM192100 20010KT P6SM OVC050=



000
FTUS46 KEKA 190240 AAA
TAFCEC
TAF AMD
KCEC 190240Z 1903/1924 17009KT P6SM OVC007
     FM190500 14005KT 3SM -DZ BKN004 OVC007
     FM191800 15014KT P6SM OVC012=



    US Dept of Commerce
    National Oceanic and Atmospheric Administration
    National Weather Service
    1325 East West Highway
    Silver Spring, MD 20910
    Page Author: NWS Internet Services Team
Disclaimer
Information Quality
Credits
Glossary
Privacy Policy
Freedom of Information Act (FOIA)
About Us
Career Opportunities